KSLE

McNary Field Airport

Salem, Oregon, USA
METAR KSLE 170256Z 31004KT 10SM CLR 18/01 A3014 RMK AO2 SLP205 T01780011 53004
Observed Flight Rules
Oct-17 @ 02:56 UTC (60 minutes ago) Visual Flight Rules
Wind Visibility Clouds
310° at 4 knots 10 miles
  • Clear skies
Temperatures Readings
Current 18°C / 64°F
Dewpoint 1°C / 34°F
Humidity 32%
Altimeter 30.14" Hg
Pressure 1020.5 hPa
Elevation 59
METAR KSLE 170256Z 31004KT 10SM CLR 18/01 A3014 RMK AO2 SLP205 T01780011 53004
Observed Flight Rules
Oct-17 @ 02:56 UTC
(60 minutes ago)
VFR
Wind Visibility
310° at 4 knots 10 miles
Clouds
  • Clear skies
Temperature Dewpoint
18°C / 64°F 1°C / 34°F
Humidity Altimeter Pressure
32% 30.14" Hg 1020.5 hPa